sensor_id;sensor_type;location;lat;lon;timestamp;temperature;humidity
33881;DHT22;20172;47.530;10.256;2022-09-11T00:00:09;13.70;99.90
33881;DHT22;20172;47.530;10.256;2022-09-11T00:02:35;13.60;99.90
33881;DHT22;20172;47.530;10.256;2022-09-11T00:05:00;13.70;99.90
33881;DHT22;20172;47.530;10.256;2022-09-11T00:07:26;13.90;99.90
33881;DHT22;20172;47.530;10.256;2022-09-11T00:09:52;14.20;99.90
33881;DHT22;20172;47.530;10.256;2022-09-11T00:12:17;14.20;99.90
33881;DHT22;20172;47.530;10.256;2022-09-11T00:14:44;14.20;99.90
33881;DHT22;20172;47.530;10.256;2022-09-11T00:17:09;14.30;99.90
33881;DHT22;20172;47.530;10.256;2022-09-11T00:19:35;14.40;99.90
33881;DHT22;20172;47.530;10.256;2022-09-11T00:22:01;14.40;99.90
33881;DHT22;20172;47.530;10.256;2022-09-11T00:24:27;14.30;99.90
33881;DHT22;20172;47.530;10.256;2022-09-11T00:26:52;14.40;99.90
33881;DHT22;20172;47.530;10.256;2022-09-11T00:29:18;14.60;99.90
33881;DHT22;20172;47.530;10.256;2022-09-11T00:31:44;14.40;99.90
33881;DHT22;20172;47.530;10.256;2022-09-11T00:34:09;14.30;99.90
33881;DHT22;20172;47.530;10.256;2022-09-11T00:36:35;14.20;99.90
33881;DHT22;20172;47.530;10.256;2022-09-11T00:39:03;14.30;99.90
33881;DHT22;20172;47.530;10.256;2022-09-11T00:41:30;14.40;99.90
33881;DHT22;20172;47.530;10.256;2022-09-11T00:46:28;13.90;99.90
33881;DHT22;20172;47.530;10.256;2022-09-11T00:48:55;14.00;99.90
33881;DHT22;20172;47.530;10.256;2022-09-11T00:51:24;14.00;99.90
33881;DHT22;20172;47.530;10.256;2022-09-11T00:53:50;14.00;99.90
33881;DHT22;20172;47.530;10.256;2022-09-11T00:56:17;14.10;99.90
33881;DHT22;20172;47.530;10.256;2022-09-11T00:58:43;14.20;99.90
33881;DHT22;20172;47.530;10.256;2022-09-11T01:01:10;14.10;99.90
33881;DHT22;20172;47.530;10.256;2022-09-11T01:03:39;14.00;99.90
33881;DHT22;20172;47.530;10.256;2022-09-11T01:06:04;14.10;99.90
33881;DHT22;20172;47.530;10.256;2022-09-11T01:08:31;14.20;99.90
33881;DHT22;20172;47.530;10.256;2022-09-11T01:16:20;13.80;99.90
33881;DHT22;20172;47.530;10.256;2022-09-11T01:21:27;13.80;99.90
33881;DHT22;20172;47.530;10.256;2022-09-11T01:26:47;13.80;99.90
33881;DHT22;20172;47.530;10.256;2022-09-11T01:29:20;13.90;99.90
33881;DHT22;20172;47.530;10.256;2022-09-11T01:37:29;14.00;99.90
33881;DHT22;20172;47.530;10.256;2022-09-11T01:40:00;14.20;99.90
33881;DHT22;20172;47.530;10.256;2022-09-11T01:42:27;14.20;99.90
33881;DHT22;20172;47.530;10.256;2022-09-11T01:44:56;14.20;99.90
33881;DHT22;20172;47.530;10.256;2022-09-11T01:47:22;14.20;99.90
33881;DHT22;20172;47.530;10.256;2022-09-11T01:49:49;14.20;99.90
33881;DHT22;20172;47.530;10.256;2022-09-11T01:52:20;14.20;99.90
33881;DHT22;20172;47.530;10.256;2022-09-11T01:54:52;13.90;99.90
33881;DHT22;20172;47.530;10.256;2022-09-11T01:57:34;13.70;99.90
33881;DHT22;20172;47.530;10.256;2022-09-11T02:00:01;13.70;99.90
33881;DHT22;20172;47.530;10.256;2022-09-11T02:02:32;13.90;99.90
33881;DHT22;20172;47.530;10.256;2022-09-11T02:05:04;13.90;99.90
33881;DHT22;20172;47.530;10.256;2022-09-11T02:07:33;13.80;99.90
33881;DHT22;20172;47.530;10.256;2022-09-11T02:10:03;13.90;99.90
33881;DHT22;20172;47.530;10.256;2022-09-11T02:12:34;13.50;99.90
33881;DHT22;20172;47.530;10.256;2022-09-11T02:15:01;13.50;99.90
33881;DHT22;20172;47.530;10.256;2022-09-11T02:19:55;14.10;99.90
33881;DHT22;20172;47.530;10.256;2022-09-11T02:22:22;14.10;99.90
33881;DHT22;20172;47.530;10.256;2022-09-11T02:24:48;14.00;99.90
33881;DHT22;20172;47.530;10.256;2022-09-11T02:27:16;14.10;99.90
33881;DHT22;20172;47.530;10.256;2022-09-11T02:29:42;14.10;99.90
33881;DHT22;20172;47.530;10.256;2022-09-11T02:32:08;14.20;99.90
33881;DHT22;20172;47.530;10.256;2022-09-11T02:34:35;14.20;99.90
33881;DHT22;20172;47.530;10.256;2022-09-11T02:44:25;13.80;99.90
33881;DHT22;20172;47.530;10.256;2022-09-11T02:52:13;13.90;99.90
33881;DHT22;20172;47.530;10.256;2022-09-11T02:54:46;13.90;99.90
33881;DHT22;20172;47.530;10.256;2022-09-11T02:59:52;13.80;99.90
33881;DHT22;20172;47.530;10.256;2022-09-11T03:02:18;13.90;99.90
33881;DHT22;20172;47.530;10.256;2022-09-11T03:04:43;14.20;99.90
33881;DHT22;20172;47.530;10.256;2022-09-11T03:07:10;14.00;99.90
33881;DHT22;20172;47.530;10.256;2022-09-11T03:09:35;14.00;99.90
33881;DHT22;20172;47.530;10.256;2022-09-11T03:12:01;14.10;99.90
33881;DHT22;20172;47.530;10.256;2022-09-11T03:14:27;14.10;99.90
33881;DHT22;20172;47.530;10.256;2022-09-11T03:16:53;14.10;99.90
33881;DHT22;20172;47.530;10.256;2022-09-11T03:19:20;14.00;99.90
33881;DHT22;20172;47.530;10.256;2022-09-11T03:21:45;13.90;99.90
33881;DHT22;20172;47.530;10.256;2022-09-11T03:24:11;14.00;99.90
33881;DHT22;20172;47.530;10.256;2022-09-11T03:26:37;14.10;99.90
33881;DHT22;20172;47.530;10.256;2022-09-11T03:29:03;14.10;99.90
33881;DHT22;20172;47.530;10.256;2022-09-11T03:31:28;14.00;99.90
33881;DHT22;20172;47.530;10.256;2022-09-11T03:33:54;14.10;99.90
33881;DHT22;20172;47.530;10.256;2022-09-11T03:36:20;14.00;99.90
33881;DHT22;20172;47.530;10.256;2022-09-11T03:38:47;14.10;99.90
33881;DHT22;20172;47.530;10.256;2022-09-11T03:41:13;13.90;99.90
33881;DHT22;20172;47.530;10.256;2022-09-11T03:43:42;13.80;99.90
33881;DHT22;20172;47.530;10.256;2022-09-11T03:46:07;13.90;99.90
33881;DHT22;20172;47.530;10.256;2022-09-11T03:48:33;13.80;99.90
33881;DHT22;20172;47.530;10.256;2022-09-11T03:50:58;13.80;99.90
33881;DHT22;20172;47.530;10.256;2022-09-11T03:53:24;14.00;99.90
33881;DHT22;20172;47.530;10.256;2022-09-11T03:55:51;14.00;99.90
33881;DHT22;20172;47.530;10.256;2022-09-11T03:58:16;13.90;99.90
33881;DHT22;20172;47.530;10.256;2022-09-11T04:00:43;14.00;99.90
33881;DHT22;20172;47.530;10.256;2022-09-11T04:03:10;14.10;99.90
33881;DHT22;20172;47.530;10.256;2022-09-11T04:05:37;14.10;99.90
33881;DHT22;20172;47.530;10.256;2022-09-11T04:08:03;14.10;99.90
33881;DHT22;20172;47.530;10.256;2022-09-11T04:10:30;14.10;99.90
33881;DHT22;20172;47.530;10.256;2022-09-11T04:12:56;14.00;99.90
33881;DHT22;20172;47.530;10.256;2022-09-11T04:15:21;14.10;99.90
33881;DHT22;20172;47.530;10.256;2022-09-11T04:17:46;14.10;99.90
33881;DHT22;20172;47.530;10.256;2022-09-11T04:20:13;14.10;99.90
33881;DHT22;20172;47.530;10.256;2022-09-11T04:22:38;14.20;99.90
33881;DHT22;20172;47.530;10.256;2022-09-11T04:25:05;14.10;99.90
33881;DHT22;20172;47.530;10.256;2022-09-11T04:27:31;14.10;99.90
33881;DHT22;20172;47.530;10.256;2022-09-11T04:29:57;14.20;99.90
33881;DHT22;20172;47.530;10.256;2022-09-11T04:32:23;14.10;99.90
33881;DHT22;20172;47.530;10.256;2022-09-11T04:34:48;14.10;99.90
33881;DHT22;20172;47.530;10.256;2022-09-11T04:37:14;14.20;99.90
33881;DHT22;20172;47.530;10.256;2022-09-11T04:39:41;14.20;99.90
33881;DHT22;20172;47.530;10.256;2022-09-11T04:42:06;14.10;99.90
33881;DHT22;20172;47.530;10.256;2022-09-11T04:44:32;14.20;99.90
33881;DHT22;20172;47.530;10.256;2022-09-11T04:46:58;14.10;99.90
33881;DHT22;20172;47.530;10.256;2022-09-11T04:49:23;14.10;99.90
33881;DHT22;20172;47.530;10.256;2022-09-11T04:51:49;14.10;99.90
33881;DHT22;20172;47.530;10.256;2022-09-11T04:54:15;14.10;99.90
33881;DHT22;20172;47.530;10.256;2022-09-11T04:56:42;14.10;99.90
33881;DHT22;20172;47.530;10.256;2022-09-11T04:59:21;13.90;99.90
33881;DHT22;20172;47.530;10.256;2022-09-11T05:01:46;13.60;99.90
33881;DHT22;20172;47.530;10.256;2022-09-11T05:04:12;13.60;99.90
33881;DHT22;20172;47.530;10.256;2022-09-11T05:06:38;13.80;99.90
33881;DHT22;20172;47.530;10.256;2022-09-11T05:09:05;13.80;99.90
33881;DHT22;20172;47.530;10.256;2022-09-11T05:11:31;13.80;99.90
33881;DHT22;20172;47.530;10.256;2022-09-11T05:13:56;13.80;99.90
33881;DHT22;20172;47.530;10.256;2022-09-11T05:16:25;13.70;99.90
33881;DHT22;20172;47.530;10.256;2022-09-11T05:18:51;13.80;99.90
33881;DHT22;20172;47.530;10.256;2022-09-11T05:21:17;13.90;99.90
33881;DHT22;20172;47.530;10.256;2022-09-11T05:23:45;13.80;99.90
33881;DHT22;20172;47.530;10.256;2022-09-11T05:26:15;13.70;99.90
33881;DHT22;20172;47.530;10.256;2022-09-11T05:28:41;13.70;99.90
33881;DHT22;20172;47.530;10.256;2022-09-11T05:31:11;13.80;99.90
33881;DHT22;20172;47.530;10.256;2022-09-11T05:33:36;13.90;99.90
33881;DHT22;20172;47.530;10.256;2022-09-11T05:36:03;14.10;99.90
33881;DHT22;20172;47.530;10.256;2022-09-11T05:38:29;14.00;99.90
33881;DHT22;20172;47.530;10.256;2022-09-11T05:40:54;14.00;99.90
33881;DHT22;20172;47.530;10.256;2022-09-11T05:43:20;14.10;99.90
33881;DHT22;20172;47.530;10.256;2022-09-11T05:45:55;14.20;99.90
33881;DHT22;20172;47.530;10.256;2022-09-11T05:48:21;14.30;99.90
33881;DHT22;20172;47.530;10.256;2022-09-11T05:50:59;14.30;99.90
33881;DHT22;20172;47.530;10.256;2022-09-11T05:53:26;14.30;99.90
33881;DHT22;20172;47.530;10.256;2022-09-11T05:55:52;14.40;99.90
33881;DHT22;20172;47.530;10.256;2022-09-11T05:58:18;14.50;99.90
33881;DHT22;20172;47.530;10.256;2022-09-11T06:00:44;14.50;99.90
33881;DHT22;20172;47.530;10.256;2022-09-11T06:03:16;14.50;99.90
33881;DHT22;20172;47.530;10.256;2022-09-11T06:05:42;14.60;99.90
33881;DHT22;20172;47.530;10.256;2022-09-11T06:08:08;14.70;99.90
33881;DHT22;20172;47.530;10.256;2022-09-11T06:10:34;14.70;99.90
33881;DHT22;20172;47.530;10.256;2022-09-11T06:13:00;14.70;99.90
33881;DHT22;20172;47.530;10.256;2022-09-11T06:15:25;14.70;99.90
33881;DHT22;20172;47.530;10.256;2022-09-11T06:17:51;14.80;99.90
33881;DHT22;20172;47.530;10.256;2022-09-11T06:20:17;14.80;99.90
33881;DHT22;20172;47.530;10.256;2022-09-11T06:22:43;14.90;99.90
33881;DHT22;20172;47.530;10.256;2022-09-11T06:25:08;14.80;99.90
33881;DHT22;20172;47.530;10.256;2022-09-11T06:27:34;14.70;99.90
33881;DHT22;20172;47.530;10.256;2022-09-11T06:29:59;14.80;99.90
33881;DHT22;20172;47.530;10.256;2022-09-11T06:32:25;14.90;99.90
33881;DHT22;20172;47.530;10.256;2022-09-11T06:34:50;14.90;99.90
33881;DHT22;20172;47.530;10.256;2022-09-11T06:37:16;15.00;99.90
33881;DHT22;20172;47.530;10.256;2022-09-11T06:39:41;15.10;99.90
33881;DHT22;20172;47.530;10.256;2022-09-11T06:42:07;15.00;99.90
33881;DHT22;20172;47.530;10.256;2022-09-11T06:44:33;15.00;99.90
33881;DHT22;20172;47.530;10.256;2022-09-11T06:46:59;15.00;99.90
33881;DHT22;20172;47.530;10.256;2022-09-11T06:49:25;15.00;99.90
33881;DHT22;20172;47.530;10.256;2022-09-11T06:51:50;15.10;99.90
33881;DHT22;20172;47.530;10.256;2022-09-11T06:54:18;15.10;99.90
33881;DHT22;20172;47.530;10.256;2022-09-11T06:56:43;15.00;99.90
33881;DHT22;20172;47.530;10.256;2022-09-11T06:59:09;14.70;99.90
33881;DHT22;20172;47.530;10.256;2022-09-11T07:01:35;14.80;99.90
33881;DHT22;20172;47.530;10.256;2022-09-11T07:04:00;14.90;99.90
33881;DHT22;20172;47.530;10.256;2022-09-11T07:06:27;15.00;99.90
33881;DHT22;20172;47.530;10.256;2022-09-11T07:08:55;15.00;99.90
33881;DHT22;20172;47.530;10.256;2022-09-11T07:11:25;15.10;99.90
33881;DHT22;20172;47.530;10.256;2022-09-11T07:13:51;15.20;99.90
33881;DHT22;20172;47.530;10.256;2022-09-11T07:16:16;15.30;99.90
33881;DHT22;20172;47.530;10.256;2022-09-11T07:18:43;15.30;99.90
33881;DHT22;20172;47.530;10.256;2022-09-11T07:21:10;15.40;99.90
33881;DHT22;20172;47.530;10.256;2022-09-11T07:23:36;15.50;99.90
33881;DHT22;20172;47.530;10.256;2022-09-11T07:26:05;15.40;99.90
33881;DHT22;20172;47.530;10.256;2022-09-11T07:28:32;15.30;99.90
33881;DHT22;20172;47.530;10.256;2022-09-11T07:33:29;15.40;99.90
33881;DHT22;20172;47.530;10.256;2022-09-11T07:35:55;15.30;99.90
33881;DHT22;20172;47.530;10.256;2022-09-11T07:38:20;15.30;99.90
33881;DHT22;20172;47.530;10.256;2022-09-11T07:40:46;15.30;99.90
33881;DHT22;20172;47.530;10.256;2022-09-11T07:43:11;15.30;99.90
33881;DHT22;20172;47.530;10.256;2022-09-11T07:45:37;15.30;99.90
33881;DHT22;20172;47.530;10.256;2022-09-11T07:48:05;15.30;99.90
33881;DHT22;20172;47.530;10.256;2022-09-11T07:50:31;15.40;99.90
33881;DHT22;20172;47.530;10.256;2022-09-11T07:52:57;15.40;99.90
33881;DHT22;20172;47.530;10.256;2022-09-11T07:55:23;15.40;99.90
33881;DHT22;20172;47.530;10.256;2022-09-11T07:57:48;15.30;99.90
33881;DHT22;20172;47.530;10.256;2022-09-11T08:00:14;15.40;99.90
33881;DHT22;20172;47.530;10.256;2022-09-11T08:02:40;15.40;99.90
33881;DHT22;20172;47.530;10.256;2022-09-11T08:05:09;15.50;99.90
33881;DHT22;20172;47.530;10.256;2022-09-11T08:07:35;15.70;99.90
33881;DHT22;20172;47.530;10.256;2022-09-11T08:10:00;15.50;99.90
33881;DHT22;20172;47.530;10.256;2022-09-11T08:12:26;15.30;99.90
33881;DHT22;20172;47.530;10.256;2022-09-11T08:14:51;15.30;99.90
33881;DHT22;20172;47.530;10.256;2022-09-11T08:17:17;15.40;99.90
33881;DHT22;20172;47.530;10.256;2022-09-11T08:19:42;15.40;99.90
33881;DHT22;20172;47.530;10.256;2022-09-11T08:22:08;15.40;99.90
33881;DHT22;20172;47.530;10.256;2022-09-11T08:24:33;15.30;99.90
33881;DHT22;20172;47.530;10.256;2022-09-11T08:26:59;15.30;99.90
33881;DHT22;20172;47.530;10.256;2022-09-11T08:29:25;15.20;99.90
33881;DHT22;20172;47.530;10.256;2022-09-11T08:31:50;15.40;99.90
33881;DHT22;20172;47.530;10.256;2022-09-11T08:34:16;15.60;99.90
33881;DHT22;20172;47.530;10.256;2022-09-11T08:36:42;15.50;99.90
33881;DHT22;20172;47.530;10.256;2022-09-11T08:39:07;15.60;99.90
33881;DHT22;20172;47.530;10.256;2022-09-11T08:46:41;15.60;99.90
33881;DHT22;20172;47.530;10.256;2022-09-11T08:51:35;15.70;99.90
33881;DHT22;20172;47.530;10.256;2022-09-11T08:54:01;15.70;99.90
33881;DHT22;20172;47.530;10.256;2022-09-11T08:56:28;15.70;99.90
33881;DHT22;20172;47.530;10.256;2022-09-11T08:59:08;15.80;99.90
33881;DHT22;20172;47.530;10.256;2022-09-11T09:01:42;15.90;99.90
33881;DHT22;20172;47.530;10.256;2022-09-11T09:07:03;15.90;99.90
33881;DHT22;20172;47.530;10.256;2022-09-11T09:14:46;16.00;99.90
33881;DHT22;20172;47.530;10.256;2022-09-11T09:17:22;16.10;99.90
33881;DHT22;20172;47.530;10.256;2022-09-11T09:19:51;16.10;99.90
33881;DHT22;20172;47.530;10.256;2022-09-11T09:22:26;16.10;99.90
33881;DHT22;20172;47.530;10.256;2022-09-11T09:24:55;16.20;99.90
33881;DHT22;20172;47.530;10.256;2022-09-11T09:27:26;16.10;99.90
33881;DHT22;20172;47.530;10.256;2022-09-11T09:29:54;16.10;99.90
33881;DHT22;20172;47.530;10.256;2022-09-11T09:32:24;16.20;99.90
33881;DHT22;20172;47.530;10.256;2022-09-11T09:34:52;16.30;99.90
33881;DHT22;20172;47.530;10.256;2022-09-11T09:37:20;16.30;99.90
33881;DHT22;20172;47.530;10.256;2022-09-11T09:39:46;16.30;99.90
33881;DHT22;20172;47.530;10.256;2022-09-11T09:47:10;16.10;99.90
33881;DHT22;20172;47.530;10.256;2022-09-11T09:49:36;16.10;99.90
33881;DHT22;20172;47.530;10.256;2022-09-11T09:52:36;16.30;99.90
33881;DHT22;20172;47.530;10.256;2022-09-11T09:57:26;16.50;99.90
33881;DHT22;20172;47.530;10.256;2022-09-11T10:12:51;17.50;99.90
33881;DHT22;20172;47.530;10.256;2022-09-11T10:15:17;17.40;99.90
33881;DHT22;20172;47.530;10.256;2022-09-11T10:17:43;17.20;99.90
33881;DHT22;20172;47.530;10.256;2022-09-11T10:22:43;17.10;99.90
33881;DHT22;20172;47.530;10.256;2022-09-11T10:25:24;17.30;99.90
33881;DHT22;20172;47.530;10.256;2022-09-11T10:27:57;17.50;99.90
33881;DHT22;20172;47.530;10.256;2022-09-11T10:32:58;18.00;99.90
33881;DHT22;20172;47.530;10.256;2022-09-11T10:35:25;18.30;99.90
33881;DHT22;20172;47.530;10.256;2022-09-11T10:40:36;18.80;99.90
33881;DHT22;20172;47.530;10.256;2022-09-11T10:43:05;19.00;99.90
33881;DHT22;20172;47.530;10.256;2022-09-11T10:45:31;18.70;99.90
33881;DHT22;20172;47.530;10.256;2022-09-11T10:48:12;18.30;99.90
33881;DHT22;20172;47.530;10.256;2022-09-11T10:50:38;18.10;99.90
33881;DHT22;20172;47.530;10.256;2022-09-11T10:53:19;17.90;99.90
33881;DHT22;20172;47.530;10.256;2022-09-11T10:55:50;17.80;99.90
33881;DHT22;20172;47.530;10.256;2022-09-11T10:58:20;17.50;99.90
33881;DHT22;20172;47.530;10.256;2022-09-11T11:00:46;17.50;99.90
33881;DHT22;20172;47.530;10.256;2022-09-11T11:03:17;17.50;99.90
33881;DHT22;20172;47.530;10.256;2022-09-11T11:13:29;16.40;99.90
33881;DHT22;20172;47.530;10.256;2022-09-11T11:18:29;16.90;99.90
33881;DHT22;20172;47.530;10.256;2022-09-11T11:23:36;17.20;99.90
33881;DHT22;20172;47.530;10.256;2022-09-11T11:38:51;19.10;99.90
33881;DHT22;20172;47.530;10.256;2022-09-11T11:41:38;19.70;99.90
33881;DHT22;20172;47.530;10.256;2022-09-11T11:44:08;20.40;99.90
33881;DHT22;20172;47.530;10.256;2022-09-11T11:46:37;21.30;99.90
33881;DHT22;20172;47.530;10.256;2022-09-11T11:51:51;21.60;99.90
33881;DHT22;20172;47.530;10.256;2022-09-11T11:56:52;20.60;99.90
33881;DHT22;20172;47.530;10.256;2022-09-11T12:07:16;19.90;99.90
33881;DHT22;20172;47.530;10.256;2022-09-11T12:09:46;20.00;99.90
33881;DHT22;20172;47.530;10.256;2022-09-11T12:12:13;20.00;99.90
33881;DHT22;20172;47.530;10.256;2022-09-11T12:14:47;20.60;99.90
33881;DHT22;20172;47.530;10.256;2022-09-11T12:17:16;21.90;99.90
33881;DHT22;20172;47.530;10.256;2022-09-11T12:22:32;23.00;99.90
33881;DHT22;20172;47.530;10.256;2022-09-11T12:24:58;23.10;99.90
33881;DHT22;20172;47.530;10.256;2022-09-11T12:30:17;23.00;99.90
33881;DHT22;20172;47.530;10.256;2022-09-11T12:32:48;22.70;99.90
33881;DHT22;20172;47.530;10.256;2022-09-11T12:41:09;22.60;99.90
33881;DHT22;20172;47.530;10.256;2022-09-11T12:45:54;23.70;99.90
33881;DHT22;20172;47.530;10.256;2022-09-11T12:48:21;23.80;99.90
33881;DHT22;20172;47.530;10.256;2022-09-11T12:50:52;26.30;99.90
33881;DHT22;20172;47.530;10.256;2022-09-11T12:53:21;26.20;99.90
33881;DHT22;20172;47.530;10.256;2022-09-11T12:56:04;24.90;99.90
33881;DHT22;20172;47.530;10.256;2022-09-11T12:58:31;26.80;99.90
33881;DHT22;20172;47.530;10.256;2022-09-11T13:01:21;26.90;99.90
33881;DHT22;20172;47.530;10.256;2022-09-11T13:03:54;27.50;99.90
33881;DHT22;20172;47.530;10.256;2022-09-11T13:06:22;31.30;95.40
33881;DHT22;20172;47.530;10.256;2022-09-11T13:08:54;30.40;92.60
33881;DHT22;20172;47.530;10.256;2022-09-11T13:11:41;28.90;94.70
33881;DHT22;20172;47.530;10.256;2022-09-11T13:16:52;35.00;79.40
33881;DHT22;20172;47.530;10.256;2022-09-11T13:19:17;37.00;63.40
33881;DHT22;20172;47.530;10.256;2022-09-11T13:21:46;32.70;64.60
33881;DHT22;20172;47.530;10.256;2022-09-11T13:24:21;29.70;73.80
33881;DHT22;20172;47.530;10.256;2022-09-11T13:26:47;27.90;79.30
33881;DHT22;20172;47.530;10.256;2022-09-11T13:29:20;29.10;75.80
33881;DHT22;20172;47.530;10.256;2022-09-11T13:31:45;31.30;76.00
33881;DHT22;20172;47.530;10.256;2022-09-11T13:34:12;36.40;65.90
33881;DHT22;20172;47.530;10.256;2022-09-11T13:36:39;39.90;56.70
33881;DHT22;20172;47.530;10.256;2022-09-11T13:39:04;41.30;51.80
33881;DHT22;20172;47.530;10.256;2022-09-11T13:41:32;40.00;49.20
33881;DHT22;20172;47.530;10.256;2022-09-11T13:44:01;37.60;50.70
33881;DHT22;20172;47.530;10.256;2022-09-11T13:46:28;34.70;53.90
33881;DHT22;20172;47.530;10.256;2022-09-11T13:51:31;31.40;60.20
33881;DHT22;20172;47.530;10.256;2022-09-11T13:56:38;28.70;67.00
33881;DHT22;20172;47.530;10.256;2022-09-11T14:01:50;26.40;74.20
33881;DHT22;20172;47.530;10.256;2022-09-11T14:04:18;27.30;73.80
33881;DHT22;20172;47.530;10.256;2022-09-11T14:06:45;27.80;74.30
33881;DHT22;20172;47.530;10.256;2022-09-11T14:09:13;28.20;71.10
33881;DHT22;20172;47.530;10.256;2022-09-11T14:11:40;27.30;72.20
33881;DHT22;20172;47.530;10.256;2022-09-11T14:14:06;26.90;75.80
33881;DHT22;20172;47.530;10.256;2022-09-11T14:16:34;27.10;75.60
33881;DHT22;20172;47.530;10.256;2022-09-11T14:21:31;25.60;78.50
33881;DHT22;20172;47.530;10.256;2022-09-11T14:23:58;25.60;78.30
33881;DHT22;20172;47.530;10.256;2022-09-11T14:26:24;25.90;79.20
33881;DHT22;20172;47.530;10.256;2022-09-11T14:34:14;25.10;78.80
33881;DHT22;20172;47.530;10.256;2022-09-11T14:39:17;24.50;84.30
33881;DHT22;20172;47.530;10.256;2022-09-11T14:41:45;24.20;85.50
33881;DHT22;20172;47.530;10.256;2022-09-11T14:44:13;24.10;86.50
33881;DHT22;20172;47.530;10.256;2022-09-11T14:46:40;23.90;88.80
33881;DHT22;20172;47.530;10.256;2022-09-11T14:49:06;23.40;90.10
33881;DHT22;20172;47.530;10.256;2022-09-11T14:51:36;23.00;90.40
33881;DHT22;20172;47.530;10.256;2022-09-11T14:54:05;22.60;90.60
33881;DHT22;20172;47.530;10.256;2022-09-11T14:56:31;22.40;92.30
33881;DHT22;20172;47.530;10.256;2022-09-11T14:58:57;22.20;94.20
33881;DHT22;20172;47.530;10.256;2022-09-11T15:01:23;22.10;94.40
33881;DHT22;20172;47.530;10.256;2022-09-11T15:03:49;22.10;95.30
33881;DHT22;20172;47.530;10.256;2022-09-11T15:06:17;22.00;96.50
33881;DHT22;20172;47.530;10.256;2022-09-11T15:08:45;22.00;96.10
33881;DHT22;20172;47.530;10.256;2022-09-11T15:11:10;21.80;96.80
33881;DHT22;20172;47.530;10.256;2022-09-11T15:13:36;21.70;97.50
33881;DHT22;20172;47.530;10.256;2022-09-11T15:16:02;21.70;98.00
33881;DHT22;20172;47.530;10.256;2022-09-11T15:18:28;21.70;97.40
33881;DHT22;20172;47.530;10.256;2022-09-11T15:20:54;21.70;97.60
33881;DHT22;20172;47.530;10.256;2022-09-11T15:23:19;21.80;97.50
33881;DHT22;20172;47.530;10.256;2022-09-11T15:25:45;22.00;97.10
33881;DHT22;20172;47.530;10.256;2022-09-11T15:28:10;22.20;96.30
33881;DHT22;20172;47.530;10.256;2022-09-11T15:30:36;22.30;97.20
33881;DHT22;20172;47.530;10.256;2022-09-11T15:33:02;22.40;96.90
33881;DHT22;20172;47.530;10.256;2022-09-11T15:35:28;22.70;96.00
33881;DHT22;20172;47.530;10.256;2022-09-11T15:37:53;22.80;94.90
33881;DHT22;20172;47.530;10.256;2022-09-11T15:40:19;23.10;93.10
33881;DHT22;20172;47.530;10.256;2022-09-11T15:42:45;22.90;92.60
33881;DHT22;20172;47.530;10.256;2022-09-11T15:45:14;23.10;92.60
33881;DHT22;20172;47.530;10.256;2022-09-11T15:47:39;23.00;92.60
33881;DHT22;20172;47.530;10.256;2022-09-11T15:50:05;22.70;93.80
33881;DHT22;20172;47.530;10.256;2022-09-11T15:52:32;22.50;93.20
33881;DHT22;20172;47.530;10.256;2022-09-11T15:54:58;22.20;93.60
33881;DHT22;20172;47.530;10.256;2022-09-11T15:57:24;22.00;93.20
33881;DHT22;20172;47.530;10.256;2022-09-11T15:59:50;21.90;94.00
33881;DHT22;20172;47.530;10.256;2022-09-11T16:02:16;21.80;93.60
33881;DHT22;20172;47.530;10.256;2022-09-11T16:04:42;21.60;94.60
33881;DHT22;20172;47.530;10.256;2022-09-11T16:07:08;21.40;94.90
33881;DHT22;20172;47.530;10.256;2022-09-11T16:09:33;21.20;95.30
33881;DHT22;20172;47.530;10.256;2022-09-11T16:12:00;20.90;99.90
33881;DHT22;20172;47.530;10.256;2022-09-11T16:14:27;20.80;99.90
33881;DHT22;20172;47.530;10.256;2022-09-11T16:16:53;20.70;99.90
33881;DHT22;20172;47.530;10.256;2022-09-11T16:19:23;20.60;99.90
33881;DHT22;20172;47.530;10.256;2022-09-11T16:21:52;20.50;99.90
33881;DHT22;20172;47.530;10.256;2022-09-11T16:24:20;20.20;99.90
33881;DHT22;20172;47.530;10.256;2022-09-11T16:26:45;19.80;99.90
33881;DHT22;20172;47.530;10.256;2022-09-11T16:29:12;19.50;99.90
33881;DHT22;20172;47.530;10.256;2022-09-11T16:31:39;19.40;99.90
33881;DHT22;20172;47.530;10.256;2022-09-11T16:34:05;19.50;99.90
33881;DHT22;20172;47.530;10.256;2022-09-11T16:36:30;19.40;99.90
33881;DHT22;20172;47.530;10.256;2022-09-11T16:39:06;19.30;99.90
33881;DHT22;20172;47.530;10.256;2022-09-11T16:41:33;19.10;99.90
33881;DHT22;20172;47.530;10.256;2022-09-11T16:43:58;18.90;99.90
33881;DHT22;20172;47.530;10.256;2022-09-11T16:46:24;18.80;99.90
33881;DHT22;20172;47.530;10.256;2022-09-11T16:48:52;18.60;99.90
33881;DHT22;20172;47.530;10.256;2022-09-11T16:51:18;18.60;99.90
33881;DHT22;20172;47.530;10.256;2022-09-11T16:53:45;18.50;99.90
33881;DHT22;20172;47.530;10.256;2022-09-11T16:56:12;18.30;99.90
33881;DHT22;20172;47.530;10.256;2022-09-11T16:58:38;18.30;99.90
33881;DHT22;20172;47.530;10.256;2022-09-11T17:01:09;18.20;99.90
33881;DHT22;20172;47.530;10.256;2022-09-11T17:03:35;18.10;99.90
33881;DHT22;20172;47.530;10.256;2022-09-11T17:06:01;18.00;99.90
33881;DHT22;20172;47.530;10.256;2022-09-11T17:08:27;17.80;99.90
33881;DHT22;20172;47.530;10.256;2022-09-11T17:10:55;17.30;99.90
33881;DHT22;20172;47.530;10.256;2022-09-11T17:13:22;16.90;99.90
33881;DHT22;20172;47.530;10.256;2022-09-11T17:15:48;16.60;99.90
33881;DHT22;20172;47.530;10.256;2022-09-11T17:18:14;16.60;99.90
33881;DHT22;20172;47.530;10.256;2022-09-11T17:20:40;16.60;99.90
33881;DHT22;20172;47.530;10.256;2022-09-11T17:23:06;16.40;99.90
33881;DHT22;20172;47.530;10.256;2022-09-11T17:25:32;16.10;99.90
33881;DHT22;20172;47.530;10.256;2022-09-11T17:28:01;16.00;99.90
33881;DHT22;20172;47.530;10.256;2022-09-11T17:30:27;15.80;99.90
33881;DHT22;20172;47.530;10.256;2022-09-11T17:32:52;15.80;99.90
33881;DHT22;20172;47.530;10.256;2022-09-11T17:35:18;15.70;99.90
33881;DHT22;20172;47.530;10.256;2022-09-11T17:37:44;15.60;99.90
33881;DHT22;20172;47.530;10.256;2022-09-11T17:40:11;15.60;99.90
33881;DHT22;20172;47.530;10.256;2022-09-11T17:42:38;15.50;99.90
33881;DHT22;20172;47.530;10.256;2022-09-11T17:45:03;15.40;99.90
33881;DHT22;20172;47.530;10.256;2022-09-11T17:47:30;15.50;99.90
33881;DHT22;20172;47.530;10.256;2022-09-11T17:49:57;15.30;99.90
33881;DHT22;20172;47.530;10.256;2022-09-11T17:52:23;15.20;99.90